Time,TemperatureF,DewpointF,PressureIn,WindDirection,WindDirectionDegrees,WindSpeedMPH,WindSpeedGustMPH,Humidity,HourlyPrecipIn,Conditions,Clouds,dailyrainin,SoftwareType,DateUTC
2013-02-22 00:01:00,63.0,62.0,29.92,ESE,119,7.0,13.0,96,0.00,,,0.00,,2013-02-22 06:01:00,
2013-02-22 00:11:00,63.0,62.0,29.92,ESE,119,7.0,13.0,96,0.00,,,0.00,,2013-02-22 06:11:00,
2013-02-22 00:22:00,63.0,62.0,29.92,ESE,119,7.0,13.0,96,0.00,,,0.00,,2013-02-22 06:22:00,
2013-02-22 00:31:00,64.0,63.0,29.91,ESE,119,9.0,13.0,95,0.00,,,0.00,,2013-02-22 06:31:00,
2013-02-22 00:42:00,64.0,63.0,29.91,ESE,119,9.0,13.0,95,0.00,,,0.00,,2013-02-22 06:42:00,
2013-02-22 00:52:00,63.0,62.0,29.92,SSE,149,8.0,13.0,95,0.00,,,0.00,,2013-02-22 06:52:00,
2013-02-22 01:01:00,63.0,62.0,29.92,SSE,151,5.0,11.0,96,0.00,,,0.00,,2013-02-22 07:01:00,
2013-02-22 01:11:00,63.0,62.0,29.92,SSE,151,5.0,11.0,96,0.00,,,0.00,,2013-02-22 07:11:00,
2013-02-22 01:21:00,64.0,63.0,29.91,ESE,115,8.0,11.0,96,0.00,,,0.00,,2013-02-22 07:21:00,
2013-02-22 01:31:00,64.0,63.0,29.90,SE,128,8.0,11.0,96,0.00,,,0.00,,2013-02-22 07:31:00,
2013-02-22 01:42:00,64.0,63.0,29.90,SE,128,8.0,11.0,96,0.00,,,0.00,,2013-02-22 07:42:00,
2013-02-22 01:51:00,64.0,63.0,29.90,SE,128,8.0,11.0,96,0.00,,,0.00,,2013-02-22 07:51:00,
2013-02-22 02:01:00,64.0,63.0,29.90,ESE,119,7.0,12.0,96,0.00,,,0.00,,2013-02-22 08:01:00,
2013-02-22 02:11:00,64.0,63.0,29.90,ESE,119,7.0,12.0,96,0.00,,,0.00,,2013-02-22 08:11:00,
2013-02-22 02:21:00,64.0,63.0,29.89,SE,124,7.0,11.0,96,0.00,,,0.00,,2013-02-22 08:21:00,
2013-02-22 02:31:00,64.0,63.0,29.88,ESE,112,6.0,11.0,96,0.00,,,0.00,,2013-02-22 08:31:00,
2013-02-22 02:42:00,64.0,63.0,29.88,ESE,112,6.0,11.0,96,0.00,,,0.00,,2013-02-22 08:42:00,
2013-02-22 02:52:00,63.0,62.0,29.88,SSE,157,3.0,7.0,96,0.00,,,0.00,,2013-02-22 08:52:00,
2013-02-22 03:03:00,63.0,62.0,29.88,SE,145,3.0,6.0,96,0.00,,,0.00,,2013-02-22 09:03:00,
2013-02-22 03:11:00,64.0,63.0,29.88,SE,135,2.0,6.0,96,0.00,,,0.00,,2013-02-22 09:11:00,
2013-02-22 03:21:00,64.0,63.0,29.88,SE,135,2.0,6.0,96,0.00,,,0.00,,2013-02-22 09:21:00,
2013-02-22 03:32:00,64.0,63.0,29.89,SE,144,2.0,5.0,96,0.00,,,0.00,,2013-02-22 09:32:00,
2013-02-22 03:42:00,64.0,63.0,29.89,SE,144,2.0,5.0,96,0.00,,,0.00,,2013-02-22 09:42:00,
2013-02-22 03:51:00,64.0,63.0,29.88,SSE,155,4.0,7.0,96,0.00,,,0.00,,2013-02-22 09:51:00,
2013-02-22 04:01:00,64.0,63.0,29.88,SSE,154,4.0,7.0,96,0.00,,,0.00,,2013-02-22 10:01:00,
2013-02-22 04:11:00,64.0,63.0,29.88,SSE,154,4.0,7.0,96,0.00,,,0.00,,2013-02-22 10:11:00,
2013-02-22 04:21:00,64.0,63.0,29.87,SE,141,6.0,12.0,96,0.00,,,0.00,,2013-02-22 10:21:00,
2013-02-22 04:32:00,64.0,63.0,29.88,SSE,157,4.0,8.0,96,0.00,,,0.00,,2013-02-22 10:32:00,
2013-02-22 04:42:00,64.0,63.0,29.88,SSE,157,4.0,8.0,96,0.00,,,0.00,,2013-02-22 10:42:00,
2013-02-22 04:51:00,65.0,64.0,29.88,SE,144,4.0,6.0,96,0.00,,,0.00,,2013-02-22 10:51:00,
2013-02-22 05:01:00,65.0,64.0,29.88,SSE,148,6.0,9.0,96,0.00,,,0.00,,2013-02-22 11:01:00,
2013-02-22 05:11:00,65.0,64.0,29.88,SSE,148,6.0,9.0,96,0.00,,,0.00,,2013-02-22 11:11:00,
2013-02-22 05:21:00,65.0,64.0,29.88,SSE,148,6.0,9.0,96,0.00,,,0.00,,2013-02-22 11:21:00,
2013-02-22 05:32:00,65.0,64.0,29.88,SSE,148,6.0,9.0,96,0.00,,,0.00,,2013-02-22 11:32:00,
2013-02-22 05:42:00,65.0,64.0,29.88,SSE,148,6.0,9.0,96,0.00,,,0.00,,2013-02-22 11:42:00,
2013-02-22 05:52:00,64.0,63.0,29.88,SSE,155,7.0,12.0,97,0.00,,,0.00,,2013-02-22 11:52:00,
2013-02-22 06:02:00,64.0,63.0,29.88,SE,144,9.0,13.0,96,0.00,,,0.00,,2013-02-22 12:02:00,
2013-02-22 06:11:00,64.0,63.0,29.88,SE,144,9.0,13.0,96,0.00,,,0.00,,2013-02-22 12:11:00,
2013-02-22 06:22:00,64.0,63.0,29.87,SE,145,8.0,14.0,97,0.00,,,0.00,,2013-02-22 12:22:00,
2013-02-22 06:32:00,64.0,63.0,29.88,SSE,152,5.0,8.0,97,0.00,,,0.00,,2013-02-22 12:32:00,
2013-02-22 06:42:00,64.0,63.0,29.88,SSE,152,5.0,8.0,97,0.00,,,0.00,,2013-02-22 12:42:00,
2013-02-22 06:52:00,65.0,64.0,29.88,SE,139,5.0,9.0,97,0.00,,,0.00,,2013-02-22 12:52:00,
2013-02-22 07:02:00,64.0,63.0,29.88,SE,128,5.0,8.0,97,0.00,,,0.00,,2013-02-22 13:02:00,
2013-02-22 07:11:00,64.0,63.0,29.88,SE,128,5.0,8.0,97,0.00,,,0.00,,2013-02-22 13:11:00,
2013-02-22 07:22:00,64.0,63.0,29.89,South,178,7.0,10.0,97,0.00,,,0.00,,2013-02-22 13:22:00,
2013-02-22 07:32:00,65.0,64.0,29.89,South,186,10.0,16.0,97,0.00,,,0.00,,2013-02-22 13:32:00,
2013-02-22 07:42:00,65.0,64.0,29.89,South,186,10.0,16.0,97,0.00,,,0.00,,2013-02-22 13:42:00,
2013-02-22 07:52:00,66.0,65.0,29.90,SSE,168,15.0,22.0,98,0.00,,,0.00,,2013-02-22 13:52:00,
2013-02-22 08:01:00,66.0,65.0,29.90,SSE,168,15.0,22.0,98,0.00,,,0.00,,2013-02-22 14:01:00,
2013-02-22 08:11:00,68.0,67.0,29.92,South,173,5.0,8.0,97,0.00,,,0.00,,2013-02-22 14:11:00,
2013-02-22 08:21:00,68.0,67.0,29.92,South,173,5.0,8.0,97,0.00,,,0.00,,2013-02-22 14:21:00,
2013-02-22 08:32:00,66.0,65.0,29.93,WSW,248,2.0,7.0,96,0.00,,,0.00,,2013-02-22 14:32:00,
2013-02-22 08:42:00,66.0,65.0,29.93,WSW,248,2.0,7.0,96,0.00,,,0.00,,2013-02-22 14:42:00,
2013-02-22 08:52:00,66.0,65.0,29.91,ESE,121,1.0,5.0,97,0.00,,,0.00,,2013-02-22 14:52:00,
2013-02-22 09:01:00,66.0,65.0,29.91,ESE,103,0.0,3.0,97,0.00,,,0.00,,2013-02-22 15:01:00,
2013-02-22 09:11:00,66.0,65.0,29.91,ESE,103,0.0,3.0,97,0.00,,,0.00,,2013-02-22 15:11:00,
2013-02-22 09:21:00,65.0,64.0,29.93,SW,214,2.0,4.0,96,0.00,,,0.00,,2013-02-22 15:21:00,
2013-02-22 09:32:00,65.0,64.0,29.93,SSW,213,1.0,4.0,97,0.00,,,0.00,,2013-02-22 15:32:00,
2013-02-22 09:42:00,65.0,64.0,29.93,SSW,213,1.0,4.0,97,0.00,,,0.00,,2013-02-22 15:42:00,
2013-02-22 09:52:00,65.0,64.0,29.91,SSE,150,1.0,3.0,97,0.00,,,0.00,,2013-02-22 15:52:00,
2013-02-22 10:01:00,64.0,63.0,29.92,SE,126,2.0,6.0,96,0.00,,,0.00,,2013-02-22 16:01:00,
2013-02-22 10:12:00,65.0,64.0,29.93,South,175,3.0,7.0,96,0.00,,,0.00,,2013-02-22 16:12:00,
2013-02-22 10:21:00,65.0,64.0,29.93,South,175,3.0,7.0,96,0.00,,,0.00,,2013-02-22 16:21:00,
2013-02-22 10:32:00,65.0,64.0,29.93,SW,219,7.0,10.0,96,0.00,,,0.00,,2013-02-22 16:32:00,
2013-02-22 10:42:00,65.0,64.0,29.93,SW,219,7.0,10.0,96,0.00,,,0.00,,2013-02-22 16:42:00,
2013-02-22 10:52:00,65.0,64.0,29.93,WSW,240,5.0,11.0,96,0.00,,,0.00,,2013-02-22 16:52:00,
2013-02-22 11:01:00,64.0,63.0,29.93,WSW,240,0.0,2.0,96,0.00,,,0.00,,2013-02-22 17:01:00,
2013-02-22 11:11:00,64.0,63.0,29.93,WSW,240,0.0,2.0,96,0.00,,,0.00,,2013-02-22 17:11:00,
2013-02-22 11:21:00,65.0,64.0,29.94,WSW,240,0.0,3.0,97,0.00,,,0.00,,2013-02-22 17:21:00,
2013-02-22 11:32:00,64.0,63.0,29.95,SSE,156,4.0,7.0,96,0.00,,,0.00,,2013-02-22 17:32:00,
2013-02-22 11:42:00,64.0,63.0,29.95,SSE,156,4.0,7.0,96,0.00,,,0.00,,2013-02-22 17:42:00,
2013-02-22 11:52:00,65.0,64.0,29.94,ESE,118,3.0,8.0,97,0.00,,,0.00,,2013-02-22 17:52:00,
2013-02-22 12:01:00,64.0,63.0,29.95,South,183,0.0,5.0,96,0.00,,,0.00,,2013-02-22 18:01:00,
2013-02-22 12:12:00,65.0,64.0,29.96,SW,232,7.0,10.0,97,0.00,,,0.00,,2013-02-22 18:12:00,
2013-02-22 12:22:00,65.0,64.0,29.96,SW,232,7.0,10.0,97,0.00,,,0.00,,2013-02-22 18:22:00,
2013-02-22 12:32:00,65.0,64.0,29.93,ESE,108,0.0,7.0,97,0.00,,,0.00,,2013-02-22 18:32:00,
2013-02-22 12:42:00,65.0,64.0,29.93,ESE,108,0.0,7.0,97,0.00,,,0.00,,2013-02-22 18:42:00,
2013-02-22 12:51:00,65.0,64.0,29.92,East,86,2.0,5.0,96,0.00,,,0.00,,2013-02-22 18:51:00,
2013-02-22 13:01:00,65.0,64.0,29.91,NNW,338,4.0,7.0,97,0.00,,,0.00,,2013-02-22 19:01:00,
2013-02-22 13:11:00,65.0,64.0,29.90,NNE,19,0.0,4.0,97,0.00,,,0.00,,2013-02-22 19:11:00,
2013-02-22 13:21:00,65.0,64.0,29.90,NNE,19,0.0,4.0,97,0.00,,,0.00,,2013-02-22 19:21:00,
2013-02-22 13:31:00,65.0,64.0,29.89,West,271,0.0,6.0,97,0.00,,,0.00,,2013-02-22 19:31:00,
2013-02-22 13:41:00,64.0,63.0,29.90,SSE,154,7.0,10.0,96,0.00,,,0.00,,2013-02-22 19:41:00,
2013-02-22 13:52:00,64.0,63.0,29.90,SSE,154,7.0,10.0,96,0.00,,,0.00,,2013-02-22 19:52:00,
2013-02-22 14:01:00,64.0,63.0,29.89,SE,137,3.0,9.0,97,0.00,,,0.00,,2013-02-22 20:01:00,
2013-02-22 14:11:00,64.0,63.0,29.89,SE,137,3.0,9.0,97,0.00,,,0.00,,2013-02-22 20:11:00,
2013-02-22 14:21:00,65.0,64.0,29.90,ESE,113,4.0,10.0,97,0.00,,,0.00,,2013-02-22 20:21:00,
2013-02-22 14:32:00,65.0,64.0,29.91,ESE,115,2.0,5.0,97,0.00,,,0.00,,2013-02-22 20:32:00,
2013-02-22 14:41:00,65.0,64.0,29.91,ESE,115,2.0,5.0,97,0.00,,,0.00,,2013-02-22 20:41:00,
2013-02-22 14:52:00,65.0,64.0,29.90,ESE,115,4.0,9.0,97,0.00,,,0.00,,2013-02-22 20:52:00,
2013-02-22 15:01:00,65.0,64.0,29.88,ESE,117,4.0,8.0,97,0.00,,,0.00,,2013-02-22 21:01:00,
2013-02-22 15:11:00,64.0,63.0,29.89,SE,130,5.0,11.0,97,0.00,,,0.00,,2013-02-22 21:11:00,
2013-02-22 15:21:00,64.0,63.0,29.89,SE,130,5.0,11.0,97,0.00,,,0.00,,2013-02-22 21:21:00,
2013-02-22 15:32:00,64.0,63.0,29.89,SE,130,5.0,9.0,97,0.00,,,0.00,,2013-02-22 21:32:00,
2013-02-22 15:42:00,64.0,63.0,29.89,SE,130,5.0,9.0,97,0.00,,,0.00,,2013-02-22 21:42:00,
2013-02-22 15:51:00,64.0,63.0,29.88,SE,132,8.0,12.0,97,0.00,,,0.00,,2013-02-22 21:51:00,
2013-02-22 16:01:00,64.0,63.0,29.88,ESE,112,3.0,14.0,97,0.00,,,0.00,,2013-02-22 22:01:00,
2013-02-22 16:11:00,64.0,63.0,29.88,ESE,112,3.0,14.0,97,0.00,,,0.00,,2013-02-22 22:11:00,
2013-02-22 16:21:00,65.0,64.0,29.89,ESE,115,0.0,3.0,98,0.00,,,0.00,,2013-02-22 22:21:00,
2013-02-22 16:31:00,65.0,64.0,29.89,ESE,115,0.0,3.0,98,0.00,,,0.00,,2013-02-22 22:31:00,
2013-02-22 16:41:00,65.0,64.0,29.89,ESE,115,0.0,3.0,98,0.00,,,0.00,,2013-02-22 22:41:00,
2013-02-22 16:51:00,65.0,64.0,29.89,ESE,115,0.0,3.0,97,0.00,,,0.00,,2013-02-22 22:51:00,
2013-02-22 17:01:00,65.0,64.0,29.88,SE,132,4.0,7.0,97,0.00,,,0.00,,2013-02-22 23:01:00,
2013-02-22 17:11:00,65.0,64.0,29.88,SE,132,4.0,7.0,97,0.00,,,0.00,,2013-02-22 23:11:00,
2013-02-22 17:21:00,65.0,64.0,29.88,SE,138,0.0,5.0,97,0.00,,,0.00,,2013-02-22 23:21:00,
2013-02-22 17:31:00,65.0,64.0,29.89,SE,138,1.0,3.0,97,0.00,,,0.00,,2013-02-22 23:31:00,
2013-02-22 17:41:00,65.0,64.0,29.89,SE,138,1.0,3.0,97,0.00,,,0.00,,2013-02-22 23:41:00,
2013-02-22 17:52:00,65.0,64.0,29.88,ESE,106,1.0,7.0,97,0.00,,,0.00,,2013-02-22 23:52:00,
2013-02-22 18:01:00,65.0,64.0,29.88,SE,129,5.0,10.0,97,0.00,,,0.00,,2013-02-23 00:01:00,
2013-02-22 18:11:00,65.0,64.0,29.88,SE,129,5.0,10.0,97,0.00,,,0.00,,2013-02-23 00:11:00,
2013-02-22 18:21:00,65.0,64.0,29.88,SE,129,5.0,10.0,97,0.00,,,0.00,,2013-02-23 00:21:00,
2013-02-22 18:32:00,65.0,64.0,29.88,SE,129,5.0,10.0,97,0.00,,,0.00,,2013-02-23 00:32:00,
2013-02-22 18:52:00,65.0,64.0,29.88,East,94,5.0,12.0,97,0.00,,,0.00,,2013-02-23 00:52:00,
2013-02-22 19:01:00,65.0,64.0,29.88,ESE,116,8.0,12.0,97,0.00,,,0.00,,2013-02-23 01:01:00,
2013-02-22 19:11:00,65.0,64.0,29.88,ESE,116,8.0,12.0,97,0.00,,,0.00,,2013-02-23 01:11:00,
2013-02-22 19:21:00,65.0,64.0,29.88,ESE,119,5.0,13.0,97,0.00,,,0.00,,2013-02-23 01:21:00,
2013-02-22 19:31:00,65.0,64.0,29.88,SE,129,8.0,12.0,97,0.00,,,0.00,,2013-02-23 01:31:00,
2013-02-22 19:42:00,65.0,64.0,29.88,SE,129,8.0,12.0,97,0.00,,,0.00,,2013-02-23 01:42:00,
2013-02-22 19:51:00,65.0,64.0,29.89,SE,132,7.0,11.0,97,0.00,,,0.00,,2013-02-23 01:51:00,
2013-02-22 20:01:00,65.0,64.0,29.88,SE,135,7.0,11.0,97,0.00,,,0.00,,2013-02-23 02:01:00,
2013-02-22 20:11:00,65.0,64.0,29.88,SSW,196,3.0,10.0,97,0.00,,,0.00,,2013-02-23 02:11:00,
2013-02-22 20:21:00,65.0,64.0,29.88,SSW,196,3.0,10.0,97,0.00,,,0.00,,2013-02-23 02:21:00,
2013-02-22 20:31:00,65.0,64.0,29.88,SSE,160,4.0,8.0,97,0.00,,,0.00,,2013-02-23 02:31:00,
2013-02-22 20:42:00,65.0,64.0,29.88,SSE,160,4.0,8.0,97,0.00,,,0.00,,2013-02-23 02:42:00,
2013-02-22 20:52:00,64.0,63.0,29.88,South,177,4.0,8.0,97,0.00,,,0.00,,2013-02-23 02:52:00,
2013-02-22 21:01:00,64.0,63.0,29.88,SSE,150,5.0,8.0,97,0.00,,,0.00,,2013-02-23 03:01:00,
2013-02-22 21:11:00,64.0,63.0,29.88,SSE,150,5.0,8.0,97,0.00,,,0.00,,2013-02-23 03:11:00,
2013-02-22 21:21:00,65.0,64.0,29.88,South,169,4.0,8.0,98,0.00,,,0.00,,2013-02-23 03:21:00,
2013-02-22 21:32:00,67.0,66.0,29.88,South,182,7.0,10.0,98,0.00,,,0.00,,2013-02-23 03:32:00,
2013-02-22 21:42:00,67.0,66.0,29.88,South,182,7.0,10.0,98,0.00,,,0.00,,2013-02-23 03:42:00,
2013-02-22 21:51:00,68.0,67.0,29.88,South,187,6.0,12.0,98,0.00,,,0.00,,2013-02-23 03:51:00,
2013-02-22 22:01:00,68.0,67.0,29.88,SSW,212,7.0,14.0,98,0.00,,,0.00,,2013-02-23 04:01:00,
2013-02-22 22:11:00,68.0,67.0,29.88,SW,217,5.0,8.0,98,0.00,,,0.00,,2013-02-23 04:11:00,
2013-02-22 22:21:00,68.0,67.0,29.88,SW,217,5.0,8.0,98,0.00,,,0.00,,2013-02-23 04:21:00,
2013-02-22 22:31:00,68.0,67.0,29.88,South,177,7.0,14.0,98,0.00,,,0.00,,2013-02-23 04:31:00,
2013-02-22 22:41:00,68.0,67.0,29.88,South,177,7.0,14.0,98,0.00,,,0.00,,2013-02-23 04:41:00,
2013-02-22 22:51:00,68.0,67.0,29.88,South,180,6.0,12.0,98,0.00,,,0.00,,2013-02-23 04:51:00,
2013-02-22 23:02:00,68.0,67.0,29.88,South,173,5.0,9.0,98,0.00,,,0.00,,2013-02-23 05:02:00,
2013-02-22 23:12:00,68.0,67.0,29.88,South,173,5.0,9.0,98,0.00,,,0.00,,2013-02-23 05:12:00,
2013-02-22 23:22:00,67.0,66.0,29.88,SSW,195,6.0,10.0,98,0.00,,,0.00,,2013-02-23 05:22:00,
2013-02-22 23:32:00,68.0,67.0,29.87,South,173,7.0,11.0,98,0.00,,,0.00,,2013-02-23 05:32:00,
2013-02-22 23:42:00,68.0,67.0,29.87,South,173,7.0,11.0,98,0.00,,,0.00,,2013-02-23 05:42:00,
2013-02-22 23:52:00,67.0,66.0,29.87,South,169,7.0,11.0,98,0.00,,,0.00,,2013-02-23 05:52:00,